»·PEaware :: PH-TIM KSNA-KCMA

PH-TIM :: KSNA-KCMA

FLIGHT INFORMATION

Flight Status: Arrived
Operator: Privately registered:
Netherlands
More flights under this callsign
Pilot: Tim P. (6337)
Aircraft: CESSNA 172 SKYHAWK
(C172)
More flights by this aircraft type
Origin: KSNA John Wayne-Orange Co
United States
Destination: KCMA Camarillo
United States
More flights between these airports :: More routes between these airports
Route: SLI V23 POPPR SMO125 SMO VNY
File this flight plan on PilotEdge
Remarks: CSTP24
Altitude:
(Current/Filed)
4,000ft
Speed:
(Current/Filed)
105kts
Departed: 17-Aug-18 10:14 AM
Arrived: 17-Aug-18 11:01 AM
Distance/Time
Traveled:
68nm/0:47
Distance/Time
To Go:
Arrived

Flight Plot

Page will automatically refresh every two minutes.


Map Options




Map Legend


Flown Route
Filed Route
Departure Airport
Arrival Airport
Navaid (VOR, NDB)
Fix

Horizontal Profiles

Position Reports

Time Latitude Longitude Heading Altitude Ground
Speed
17-Aug-18 09:49 33.666872 -117.872516 221 60ft 0kts
17-Aug-18 09:50 33.666872 -117.872516 221 60ft 0kts
17-Aug-18 09:51 33.666872 -117.872516 221 60ft 0kts
17-Aug-18 09:52 33.666872 -117.872516 221 60ft 0kts
17-Aug-18 09:53 33.666872 -117.872516 221 60ft 0kts
17-Aug-18 09:54 33.666872 -117.872516 221 60ft 0kts
17-Aug-18 09:55 33.666872 -117.872516 221 60ft 0kts
17-Aug-18 09:56 33.666872 -117.872516 221 60ft 0kts
17-Aug-18 09:57 33.666872 -117.872516 221 60ft 0kts
17-Aug-18 09:58 33.666872 -117.872516 221 60ft 0kts
17-Aug-18 09:59 33.666872 -117.872516 221 60ft 0kts
17-Aug-18 10:00 33.666872 -117.872516 221 60ft 0kts
17-Aug-18 10:01 33.666872 -117.872516 221 60ft 0kts
17-Aug-18 10:02 33.666872 -117.872516 221 60ft 0kts
17-Aug-18 10:03 33.666872 -117.872516 221 60ft 0kts
17-Aug-18 10:04 33.666872 -117.872516 221 60ft 0kts
17-Aug-18 10:05 33.667360 -117.872724 38 60ft 9kts
17-Aug-18 10:06 33.669887 -117.870104 40 60ft 13kts
17-Aug-18 10:07 33.672907 -117.867862 328 60ft 11kts
17-Aug-18 10:08 33.673295 -117.867948 47 60ft 0kts
17-Aug-18 10:09 33.673295 -117.867948 47 60ft 0kts
17-Aug-18 10:10 33.673294 -117.867948 47 60ft 0kts
17-Aug-18 10:11 33.674319 -117.866933 28 60ft 12kts
17-Aug-18 10:12 33.677307 -117.865028 27 60ft 12kts
17-Aug-18 10:13 33.679920 -117.863566 260 60ft 0kts
17-Aug-18 10:14 33.679919 -117.863586 269 60ft 2kts
17-Aug-18 10:15 33.669694 -117.870685 204 245ft 74kts
17-Aug-18 10:16 33.652938 -117.888072 228 793ft 88kts
17-Aug-18 10:17 33.636613 -117.909735 225 1496ft 89kts
17-Aug-18 10:18 33.620969 -117.932652 230 2150ft 89kts
17-Aug-18 10:19 33.609560 -117.957261 310 2725ft 85kts
17-Aug-18 10:20 33.630034 -117.967462 354 3289ft 79kts
17-Aug-18 10:21 33.651185 -117.974336 332 3791ft 81kts
17-Aug-18 10:22 33.672122 -117.990141 329 3991ft 106kts
17-Aug-18 10:23 33.697477 -118.009001 334 4104ft 112kts
17-Aug-18 10:24 33.726849 -118.022755 342 3974ft 114kts
17-Aug-18 10:25 33.754842 -118.038168 335 3936ft 106kts
17-Aug-18 10:26 33.781123 -118.053118 339 3963ft 102kts
17-Aug-18 10:27 33.792768 -118.085438 289 3988ft 110kts
17-Aug-18 10:28 33.800007 -118.121423 293 4028ft 113kts
17-Aug-18 10:29 33.811607 -118.156006 298 4062ft 112kts
17-Aug-18 10:30 33.818883 -118.193140 286 4059ft 115kts
17-Aug-18 10:31 33.828388 -118.229496 293 4073ft 115kts
17-Aug-18 10:32 33.840172 -118.265103 294 4065ft 116kts
17-Aug-18 10:33 33.856180 -118.296088 319 4106ft 111kts
17-Aug-18 10:34 33.879405 -118.321002 324 4081ft 112kts
17-Aug-18 10:35 33.902388 -118.346274 320 4091ft 112kts
17-Aug-18 10:36 33.926228 -118.370012 326 4091ft 111kts
17-Aug-18 10:37 33.949624 -118.394326 316 4095ft 112kts
17-Aug-18 10:38 33.972201 -118.419921 325 4056ft 111kts
17-Aug-18 10:39 33.996746 -118.442234 323 4031ft 109kts
17-Aug-18 10:40 34.022955 -118.458093 359 3965ft 108kts
17-Aug-18 10:41 34.052530 -118.459426 356 3922ft 106kts
17-Aug-18 10:42 34.081411 -118.462451 1 3905ft 103kts
17-Aug-18 10:43 34.108571 -118.472039 335 3987ft 102kts
17-Aug-18 10:44 34.134830 -118.482422 355 4092ft 100kts
17-Aug-18 10:45 34.156448 -118.500647 302 4098ft 112kts
17-Aug-18 10:46 34.169477 -118.536406 299 4052ft 115kts
17-Aug-18 10:47 34.183306 -118.571942 298 4019ft 115kts
17-Aug-18 10:48 34.195828 -118.607663 297 3970ft 115kts
17-Aug-18 10:49 34.209092 -118.642756 297 3961ft 113kts
17-Aug-18 10:50 34.220770 -118.675383 291 3890ft 117kts
17-Aug-18 10:51 34.225102 -118.714331 274 3904ft 114kts
17-Aug-18 10:52 34.225633 -118.752746 272 3921ft 113kts
17-Aug-18 10:53 34.228091 -118.790963 283 3958ft 113kts
17-Aug-18 10:54 34.239329 -118.826305 293 3993ft 113kts
17-Aug-18 10:55 34.244588 -118.864078 271 3704ft 125kts
17-Aug-18 10:56 34.239983 -118.907554 257 3029ft 136kts
17-Aug-18 10:57 34.231628 -118.951402 260 2408ft 132kts
17-Aug-18 10:58 34.224317 -118.994565 261 1768ft 131kts
17-Aug-18 10:59 34.218666 -119.033432 262 1086ft 101kts
17-Aug-18 11:00 34.214998 -119.061345 264 524ft 73kts
17-Aug-18 11:01 34.213696 -119.083462 277 107ft 55kts
17-Aug-18 11:02 34.212870 -119.090855 202 81ft 0kts
17-Aug-18 11:03 34.212489 -119.090939 169 81ft 8kts
17-Aug-18 11:04 34.210963 -119.088447 89 80ft 11kts
17-Aug-18 11:05 34.210931 -119.083995 89 81ft 13kts
17-Aug-18 11:06 34.210897 -119.079614 90 81ft 12kts
17-Aug-18 11:07 34.210213 -119.078406 87 81ft 0kts

Navigation Log

Ident Type
Flight plan parsing failed, navigation log unavailable